createdAt,value
2022-10-19T14:51:18.482Z,1019.38
2022-10-19T14:52:19.565Z,1019.34
2022-10-19T14:53:19.445Z,1019.32
2022-10-19T14:54:19.461Z,1019.26
2022-10-19T14:55:19.431Z,1019.31
2022-10-19T14:56:19.422Z,1019.24
2022-10-19T14:57:19.405Z,1019.25
2022-10-19T14:58:19.411Z,1019.27
2022-10-19T14:59:19.391Z,1019.22
2022-10-19T15:00:19.435Z,1019.23
2022-10-19T15:01:19.458Z,1019.22
2022-10-19T15:02:19.314Z,1019.21
2022-10-19T15:03:19.297Z,1019.18
2022-10-19T15:04:19.500Z,1019.19
2022-10-19T15:05:19.285Z,1019.16
2022-10-19T15:06:19.324Z,1019.21
2022-10-19T15:07:19.259Z,1019.07
2022-10-19T15:08:19.241Z,1019.10
2022-10-19T15:09:30.281Z,1019.12
2022-10-19T15:10:19.266Z,1019.12
2022-10-19T15:11:19.242Z,1019.07
2022-10-19T15:12:19.207Z,1019.07
2022-10-19T15:13:19.173Z,1019.04
2022-10-19T15:14:19.171Z,1019.04
2022-10-19T15:15:19.140Z,1019.01
2022-10-19T15:16:19.138Z,1018.98
2022-10-19T15:17:20.962Z,1018.98
2022-10-19T15:18:43.467Z,1018.97
2022-10-19T15:19:19.160Z,1018.97
2022-10-19T15:20:19.183Z,1019.00
2022-10-19T15:21:19.155Z,1018.93
2022-10-19T15:22:19.066Z,1018.95
2022-10-19T15:23:19.047Z,1018.93
2022-10-19T15:24:19.113Z,1018.92
2022-10-19T15:25:19.017Z,1018.91
2022-10-19T15:26:19.022Z,1018.93
2022-10-19T15:27:19.017Z,1018.90
2022-10-19T15:28:21.779Z,1018.94
2022-10-19T15:29:19.212Z,1018.93
2022-10-19T15:30:18.953Z,1018.91
2022-10-19T15:31:19.012Z,1018.89
2022-10-19T15:32:18.920Z,1018.88
2022-10-19T15:33:18.956Z,1018.86
2022-10-19T15:34:18.895Z,1018.84
2022-10-19T15:35:19.396Z,1018.84
2022-10-19T15:36:18.919Z,1018.80
2022-10-19T15:37:18.876Z,1018.80
2022-10-19T15:38:18.947Z,1018.80
2022-10-19T15:39:33.060Z,1018.84
2022-10-19T15:40:18.820Z,1018.89
2022-10-19T15:41:18.811Z,1018.90
2022-10-19T15:42:18.777Z,1018.91
2022-10-19T15:43:18.763Z,1018.88
2022-10-19T15:44:18.756Z,1018.84
2022-10-19T15:45:18.729Z,1018.85
2022-10-19T15:46:18.739Z,1018.80
2022-10-19T15:47:18.711Z,1018.82
2022-10-19T15:48:18.693Z,1018.83
2022-10-19T15:49:18.666Z,1018.83
2022-10-19T15:50:18.672Z,1018.81
2022-10-19T15:51:21.742Z,1018.79
2022-10-19T15:52:18.662Z,1018.81
2022-10-19T15:53:18.638Z,1018.77
2022-10-19T15:54:18.611Z,1018.75
2022-10-19T15:55:18.597Z,1018.71
2022-10-19T15:56:18.587Z,1018.73
2022-10-19T15:57:18.593Z,1018.74
2022-10-19T15:58:18.564Z,1018.71
2022-10-19T15:59:18.544Z,1018.71
2022-10-19T16:00:18.543Z,1018.65
2022-10-19T16:01:18.561Z,1018.65
2022-10-19T16:02:18.503Z,1018.65
2022-10-19T16:03:18.496Z,1018.68
2022-10-19T16:04:18.476Z,1018.68
2022-10-19T16:05:18.484Z,1018.63
2022-10-19T16:06:18.482Z,1018.62
2022-10-19T16:07:18.419Z,1018.65
2022-10-19T16:08:18.704Z,1018.62
2022-10-19T16:09:18.391Z,1018.66
2022-10-19T16:10:18.396Z,1018.68
2022-10-19T16:11:18.378Z,1018.66
2022-10-19T16:12:18.353Z,1018.66
2022-10-19T16:13:18.481Z,1018.67
2022-10-19T16:14:18.335Z,1018.64
2022-10-19T16:15:18.364Z,1018.66
2022-10-19T16:16:18.343Z,1018.63
2022-10-19T16:17:18.293Z,1018.62
2022-10-19T16:18:18.297Z,1018.60
2022-10-19T16:19:18.270Z,1018.60
2022-10-19T16:20:18.266Z,1018.59
2022-10-19T16:21:18.268Z,1018.60
2022-10-19T16:22:18.265Z,1018.57
2022-10-19T16:23:18.267Z,1018.51
2022-10-19T16:24:18.231Z,1018.57
2022-10-19T16:25:18.180Z,1018.56
2022-10-19T16:26:18.185Z,1018.55
2022-10-19T16:27:18.149Z,1018.50
2022-10-19T16:28:24.632Z,1018.48
2022-10-19T16:29:18.113Z,1018.47
2022-10-19T16:30:18.101Z,1018.47
2022-10-19T16:31:18.107Z,1018.45
2022-10-19T16:32:18.080Z,1018.42
2022-10-19T16:33:18.058Z,1018.38
2022-10-19T16:34:18.051Z,1018.38
2022-10-19T16:35:18.034Z,1018.39
2022-10-19T16:36:18.039Z,1018.38
2022-10-19T16:37:17.998Z,1018.40
2022-10-19T16:38:18.049Z,1018.41
2022-10-19T16:39:17.990Z,1018.37
2022-10-19T16:40:17.967Z,1018.38
2022-10-19T16:41:17.975Z,1018.40
2022-10-19T16:42:17.942Z,1018.42
2022-10-19T16:43:17.920Z,1018.42
2022-10-19T16:44:17.910Z,1018.40
2022-10-19T16:45:17.896Z,1018.42
2022-10-19T16:46:17.905Z,1018.44
2022-10-19T16:47:17.874Z,1018.41
2022-10-19T16:48:21.847Z,1018.46
2022-10-19T16:49:17.854Z,1018.44
2022-10-19T16:50:17.828Z,1018.48
2022-10-19T16:51:17.826Z,1018.45
2022-10-19T16:52:17.805Z,1018.47
2022-10-19T16:53:17.785Z,1018.48
2022-10-19T16:54:17.780Z,1018.51
2022-10-19T16:55:17.813Z,1018.53
2022-10-19T16:56:17.786Z,1018.58
2022-10-19T16:57:17.735Z,1018.54
2022-10-19T16:58:17.718Z,1018.51
2022-10-19T16:59:17.711Z,1018.52
2022-10-19T17:00:17.751Z,1018.50
2022-10-19T17:01:17.792Z,1018.51
2022-10-19T17:02:17.723Z,1018.51
2022-10-19T17:03:17.735Z,1018.46
2022-10-19T17:04:17.785Z,1018.49
2022-10-19T17:05:17.677Z,1018.51
2022-10-19T17:06:17.715Z,1018.53
2022-10-19T17:07:17.648Z,1018.48
2022-10-19T17:08:17.642Z,1018.52
2022-10-19T17:10:17.752Z,1018.53
2022-10-19T17:11:17.620Z,1018.55
2022-10-19T17:12:17.594Z,1018.63
2022-10-19T17:13:17.575Z,1018.54
2022-10-19T17:14:17.565Z,1018.55
2022-10-19T17:15:41.579Z,1018.51
2022-10-19T17:16:17.556Z,1018.49
2022-10-19T17:17:17.545Z,1018.42
2022-10-19T17:19:17.494Z,1018.37
2022-10-19T17:20:17.517Z,1018.41
2022-10-19T17:21:17.495Z,1018.39
2022-10-19T17:22:17.462Z,1018.37
2022-10-19T17:23:17.447Z,1018.38
2022-10-19T17:24:21.653Z,1018.36
2022-10-19T17:25:17.429Z,1018.36
2022-10-19T17:26:17.453Z,1018.44
2022-10-19T17:27:17.434Z,1018.44
2022-10-19T17:28:17.390Z,1018.43
2022-10-19T17:29:17.399Z,1018.43
2022-10-19T17:30:17.363Z,1018.36
2022-10-19T17:31:17.370Z,1018.33
2022-10-19T17:32:17.350Z,1018.32
2022-10-19T17:33:17.321Z,1018.29
2022-10-19T17:34:17.315Z,1018.32
2022-10-19T17:35:17.302Z,1018.32
2022-10-19T17:36:17.298Z,1018.31
2022-10-19T17:37:17.297Z,1018.32
2022-10-19T17:38:17.254Z,1018.42
2022-10-19T17:39:17.246Z,1018.39
2022-10-19T17:40:17.245Z,1018.32
2022-10-19T17:41:17.236Z,1018.39
2022-10-19T17:42:17.246Z,1018.40
2022-10-19T17:43:17.212Z,1018.40
2022-10-19T17:44:17.177Z,1018.39
2022-10-19T17:45:17.186Z,1018.40
2022-10-19T17:46:17.178Z,1018.42
2022-10-19T17:47:17.152Z,1018.36
2022-10-19T17:48:17.124Z,1018.41
2022-10-19T17:49:17.110Z,1018.41
2022-10-19T17:50:17.119Z,1018.37
2022-10-19T17:51:17.101Z,1018.37
2022-10-19T17:52:17.145Z,1018.35
2022-10-19T17:53:17.050Z,1018.39
2022-10-19T17:54:17.053Z,1018.37
2022-10-19T17:55:17.108Z,1018.35
2022-10-19T17:56:17.037Z,1018.34
2022-10-19T17:57:17.044Z,1018.37
2022-10-19T17:58:17.000Z,1018.34
2022-10-19T17:59:17.297Z,1018.36
2022-10-19T18:00:16.977Z,1018.32
2022-10-19T18:01:16.981Z,1018.32
2022-10-19T18:02:16.945Z,1018.36
2022-10-19T18:03:17.071Z,1018.34
2022-10-19T18:04:16.915Z,1018.41
2022-10-19T18:05:16.916Z,1018.40
2022-10-19T18:06:16.907Z,1018.39
2022-10-19T18:07:16.874Z,1018.47
2022-10-19T18:08:16.869Z,1018.50
2022-10-19T18:09:16.850Z,1018.50
2022-10-19T18:10:16.838Z,1018.49
2022-10-19T18:11:16.832Z,1018.50
2022-10-19T18:12:16.812Z,1018.47
2022-10-19T18:13:16.837Z,1018.49
2022-10-19T18:14:16.787Z,1018.47
2022-10-19T18:15:16.767Z,1018.46
2022-10-19T18:16:16.786Z,1018.47
2022-10-19T18:17:16.751Z,1018.48
2022-10-19T18:18:16.748Z,1018.45
2022-10-19T18:19:16.728Z,1018.49
2022-10-19T18:20:16.751Z,1018.43
2022-10-19T18:21:16.716Z,1018.49
2022-10-19T18:22:16.722Z,1018.43
2022-10-19T18:23:16.664Z,1018.43
2022-10-19T18:24:16.659Z,1018.44
2022-10-19T18:25:25.977Z,1018.43
2022-10-19T18:26:16.639Z,1018.37
2022-10-19T18:27:16.617Z,1018.38
2022-10-19T18:28:16.618Z,1018.39
2022-10-19T18:29:16.591Z,1018.33
2022-10-19T18:30:16.629Z,1018.27
2022-10-19T18:31:16.563Z,1018.26
2022-10-19T18:32:16.605Z,1018.32
2022-10-19T18:33:16.536Z,1018.32
2022-10-19T18:34:16.532Z,1018.35
2022-10-19T18:35:16.528Z,1018.31
2022-10-19T18:36:16.503Z,1018.36
2022-10-19T18:37:16.486Z,1018.37
2022-10-19T18:38:16.476Z,1018.33
2022-10-19T18:39:16.476Z,1018.31
2022-10-19T18:40:16.484Z,1018.35
2022-10-19T18:41:16.435Z,1018.35
2022-10-19T18:42:16.427Z,1018.36
2022-10-19T18:43:16.508Z,1018.40
2022-10-19T18:44:16.400Z,1018.35
2022-10-19T18:45:16.389Z,1018.39
2022-10-19T18:46:16.385Z,1018.34
2022-10-19T18:47:16.384Z,1018.36
2022-10-19T18:48:16.375Z,1018.32
2022-10-19T18:49:16.330Z,1018.32
2022-10-19T18:50:16.371Z,1018.28
2022-10-19T18:51:16.332Z,1018.28
2022-10-19T18:52:16.344Z,1018.21
2022-10-19T18:53:16.274Z,1018.20
2022-10-19T18:54:16.345Z,1018.19
2022-10-19T18:55:16.267Z,1018.20
2022-10-19T18:56:16.268Z,1018.14
2022-10-19T18:57:16.226Z,1018.14
2022-10-19T18:58:16.337Z,1018.12
2022-10-19T18:59:16.267Z,1018.15
2022-10-19T19:00:16.189Z,1018.15
2022-10-19T19:01:16.259Z,1018.13
2022-10-19T19:02:22.512Z,1018.19
2022-10-19T19:03:16.157Z,1018.20
2022-10-19T19:04:16.141Z,1018.18
2022-10-19T19:05:16.124Z,1018.15
2022-10-19T19:06:16.114Z,1018.17
2022-10-19T19:07:16.095Z,1018.14
2022-10-19T19:08:16.173Z,1018.14
2022-10-19T19:09:16.065Z,1018.12
2022-10-19T19:10:16.083Z,1018.05
2022-10-19T19:11:16.055Z,1018.00
2022-10-19T19:12:16.025Z,1017.95
2022-10-19T19:13:16.027Z,1017.95
2022-10-19T19:14:16.020Z,1017.95
2022-10-19T19:15:15.985Z,1017.89
2022-10-19T19:16:15.992Z,1017.86
2022-10-19T19:17:15.973Z,1017.85
2022-10-19T19:18:15.964Z,1017.88
2022-10-19T19:19:15.958Z,1017.86
2022-10-19T19:20:15.928Z,1017.85
2022-10-19T19:21:15.917Z,1017.84
2022-10-19T19:22:15.892Z,1017.83
2022-10-19T19:23:15.906Z,1017.86
2022-10-19T19:24:15.893Z,1017.80
2022-10-19T19:25:15.867Z,1017.87
2022-10-19T19:26:15.864Z,1017.87
2022-10-19T19:27:15.840Z,1017.86
2022-10-19T19:28:15.810Z,1017.87
2022-10-19T19:29:15.844Z,1017.85
2022-10-19T19:30:15.802Z,1017.85
2022-10-19T19:31:15.836Z,1017.78
2022-10-19T19:32:15.797Z,1017.76
2022-10-19T19:33:15.753Z,1017.76
2022-10-19T19:34:15.744Z,1017.74
2022-10-19T19:35:15.723Z,1017.76
2022-10-19T19:36:15.731Z,1017.79
2022-10-19T19:37:15.700Z,1017.78
2022-10-19T19:38:15.726Z,1017.80
2022-10-19T19:39:15.665Z,1017.82
2022-10-19T19:40:15.656Z,1017.78
2022-10-19T19:41:15.661Z,1017.79
2022-10-19T19:42:15.618Z,1017.76
2022-10-19T19:43:15.642Z,1017.78
2022-10-19T19:44:15.596Z,1017.86
2022-10-19T19:45:15.629Z,1017.83
2022-10-19T19:46:15.608Z,1017.84
2022-10-19T19:47:15.572Z,1017.83
2022-10-19T19:48:15.545Z,1017.83
2022-10-19T19:49:15.527Z,1017.84
2022-10-19T19:50:15.513Z,1017.79
2022-10-19T19:51:15.523Z,1017.77
2022-10-19T19:52:15.484Z,1017.74
2022-10-19T19:53:15.484Z,1017.68
2022-10-19T19:54:15.457Z,1017.68
2022-10-19T19:55:15.481Z,1017.63
2022-10-19T19:56:15.455Z,1017.69
2022-10-19T19:57:15.443Z,1017.69
2022-10-19T19:58:15.403Z,1017.67
2022-10-19T19:59:15.398Z,1017.65
2022-10-19T20:00:15.395Z,1017.63
2022-10-19T20:01:15.479Z,1017.63
2022-10-19T20:02:15.361Z,1017.62
2022-10-19T20:03:15.353Z,1017.59
2022-10-19T20:04:15.347Z,1017.64
2022-10-19T20:05:15.323Z,1017.60
2022-10-19T20:06:15.315Z,1017.59
2022-10-19T20:07:15.303Z,1017.58
2022-10-19T20:08:15.277Z,1017.59
2022-10-19T20:09:15.271Z,1017.56
2022-10-19T20:10:15.254Z,1017.55
2022-10-19T20:11:15.279Z,1017.53
2022-10-19T20:12:15.228Z,1017.52
2022-10-19T20:13:15.219Z,1017.52
2022-10-19T20:14:15.207Z,1017.51
2022-10-19T20:15:15.189Z,1017.51
2022-10-19T20:16:15.200Z,1017.46
2022-10-19T20:17:15.169Z,1017.46
2022-10-19T20:18:15.149Z,1017.52
2022-10-19T20:19:15.138Z,1017.49
2022-10-19T20:20:15.119Z,1017.49
2022-10-19T20:21:15.198Z,1017.50
2022-10-19T20:22:15.139Z,1017.51
2022-10-19T20:23:15.086Z,1017.50
2022-10-19T20:24:15.090Z,1017.46
2022-10-19T20:25:15.099Z,1017.50
2022-10-19T20:26:15.068Z,1017.46
2022-10-19T20:27:15.034Z,1017.45
2022-10-19T20:28:15.019Z,1017.45
2022-10-19T20:29:15.037Z,1017.41
2022-10-19T20:30:15.014Z,1017.43
2022-10-19T20:31:15.037Z,1017.45
2022-10-19T20:32:14.966Z,1017.47
2022-10-19T20:33:14.977Z,1017.49
2022-10-19T20:34:14.971Z,1017.43
2022-10-19T20:35:14.974Z,1017.40
2022-10-19T20:36:14.931Z,1017.43
2022-10-19T20:37:14.927Z,1017.40
2022-10-19T20:38:14.897Z,1017.39
2022-10-19T20:39:14.884Z,1017.42
2022-10-19T20:40:14.861Z,1017.36
2022-10-19T20:41:14.869Z,1017.35
2022-10-19T20:42:14.841Z,1017.30
2022-10-19T20:43:14.826Z,1017.26
2022-10-19T20:44:14.814Z,1017.21
2022-10-19T20:45:14.804Z,1017.20
2022-10-19T20:46:14.826Z,1017.20
2022-10-19T20:47:14.776Z,1017.13
2022-10-19T20:48:14.804Z,1017.19
2022-10-19T20:49:14.753Z,1017.17
2022-10-19T20:50:16.093Z,1017.14
2022-10-19T20:51:14.744Z,1017.17
2022-10-19T20:52:14.706Z,1017.21
2022-10-19T20:53:14.700Z,1017.20
2022-10-19T20:54:14.717Z,1017.19
2022-10-19T20:55:14.676Z,1017.15
2022-10-19T20:56:14.684Z,1017.15
2022-10-19T20:57:14.645Z,1017.17
2022-10-19T20:58:14.631Z,1017.17
2022-10-19T20:59:14.626Z,1017.19
2022-10-19T21:00:14.663Z,1017.16
2022-10-19T21:01:14.694Z,1017.13
2022-10-19T21:02:14.576Z,1017.16
2022-10-19T21:03:14.583Z,1017.17
2022-10-19T21:04:14.583Z,1017.07
2022-10-19T21:05:14.542Z,1017.13
2022-10-19T21:06:14.544Z,1017.12
2022-10-19T21:07:14.545Z,1017.09
2022-10-19T21:08:14.497Z,1017.07
2022-10-19T21:09:14.587Z,1017.05
2022-10-19T21:10:14.481Z,1017.09
2022-10-19T21:11:14.486Z,1017.05
2022-10-19T21:12:14.449Z,1016.99
2022-10-19T21:13:14.449Z,1017.03
2022-10-19T21:14:14.427Z,1016.96
2022-10-19T21:15:14.410Z,1016.95
2022-10-19T21:16:14.422Z,1016.97
2022-10-19T21:17:14.388Z,1016.93
2022-10-19T21:18:14.403Z,1016.96
2022-10-19T21:19:14.368Z,1016.96
2022-10-19T21:20:14.353Z,1016.95
2022-10-19T21:21:14.353Z,1016.98
2022-10-19T21:22:14.319Z,1016.93
2022-10-19T21:23:14.311Z,1016.92
2022-10-19T21:24:14.301Z,1016.93
2022-10-19T21:25:14.283Z,1016.95
2022-10-19T21:26:14.488Z,1016.86
2022-10-19T21:27:14.268Z,1016.88
2022-10-19T21:28:14.244Z,1016.90
2022-10-19T21:29:14.235Z,1016.94
2022-10-19T21:30:14.225Z,1016.96
2022-10-19T21:31:14.223Z,1016.93
2022-10-19T21:32:14.193Z,1016.94
2022-10-19T21:33:14.185Z,1016.97
2022-10-19T21:34:14.167Z,1016.91
2022-10-19T21:35:14.159Z,1016.94
2022-10-19T21:36:14.169Z,1016.91
2022-10-19T21:37:14.134Z,1016.94
2022-10-19T21:38:14.116Z,1016.98
2022-10-19T21:39:14.122Z,1016.95
2022-10-19T21:40:14.094Z,1016.95
2022-10-19T21:41:14.102Z,1016.90
2022-10-19T21:42:14.076Z,1016.86
2022-10-19T21:43:14.080Z,1016.84
2022-10-19T21:44:14.047Z,1016.83
2022-10-19T21:45:30.615Z,1016.90
2022-10-19T21:46:14.072Z,1016.83
2022-10-19T21:47:14.006Z,1016.87
2022-10-19T21:48:13.992Z,1016.87
2022-10-19T21:49:13.996Z,1016.82
2022-10-19T21:50:13.967Z,1016.82
2022-10-19T21:51:13.974Z,1016.79
2022-10-19T21:52:16.202Z,1016.79
2022-10-19T21:53:13.936Z,1016.76
2022-10-19T21:54:13.985Z,1016.68
2022-10-19T21:55:13.915Z,1016.65
2022-10-19T21:56:13.913Z,1016.65
2022-10-19T21:57:13.898Z,1016.66
2022-10-19T21:58:14.109Z,1016.58
2022-10-19T21:59:13.859Z,1016.65
2022-10-19T22:00:13.842Z,1016.58
2022-10-19T22:01:14.017Z,1016.58
2022-10-19T22:02:13.945Z,1016.57
2022-10-19T22:04:12.798Z,1016.51
2022-10-19T22:05:13.802Z,1016.51
2022-10-19T22:06:13.779Z,1016.54
2022-10-19T22:07:13.758Z,1016.58
2022-10-19T22:08:13.744Z,1016.55
2022-10-19T22:09:13.746Z,1016.58
2022-10-19T22:10:13.716Z,1016.54
2022-10-19T22:11:13.725Z,1016.56
2022-10-19T22:13:12.673Z,1016.54
2022-10-19T22:14:13.669Z,1016.49
2022-10-19T22:15:13.669Z,1016.53
2022-10-19T22:16:13.655Z,1016.53
2022-10-19T22:17:13.632Z,1016.51
2022-10-19T22:18:13.630Z,1016.51
2022-10-19T22:19:13.630Z,1016.51
2022-10-19T22:20:13.591Z,1016.51
2022-10-19T22:21:13.597Z,1016.48
2022-10-19T22:22:13.567Z,1016.47
2022-10-19T22:23:13.554Z,1016.49
2022-10-19T22:24:13.536Z,1016.51
2022-10-19T22:25:13.537Z,1016.50
2022-10-19T22:26:13.529Z,1016.45
2022-10-19T22:27:13.505Z,1016.49
2022-10-19T22:28:13.521Z,1016.49
2022-10-19T22:29:13.484Z,1016.43
2022-10-19T22:30:13.464Z,1016.41
2022-10-19T22:31:13.470Z,1016.43
2022-10-19T22:32:13.440Z,1016.40
2022-10-19T22:33:13.432Z,1016.39
2022-10-19T22:34:13.442Z,1016.34
2022-10-19T22:35:13.402Z,1016.33
2022-10-19T22:36:13.407Z,1016.35
2022-10-19T22:37:13.410Z,1016.29
2022-10-19T22:38:13.388Z,1016.33
2022-10-19T22:39:13.351Z,1016.27
2022-10-19T22:40:13.364Z,1016.25
2022-10-19T22:41:13.341Z,1016.25
2022-10-19T22:42:13.306Z,1016.22
2022-10-19T22:43:13.322Z,1016.19
2022-10-19T22:44:13.294Z,1016.15
2022-10-19T22:45:13.277Z,1016.15
2022-10-19T22:46:13.269Z,1016.11
2022-10-19T22:47:13.251Z,1016.12
2022-10-19T22:48:13.234Z,1016.11
2022-10-19T22:49:13.240Z,1016.05
2022-10-19T22:50:13.213Z,1016.05
2022-10-19T22:51:13.213Z,1016.01
2022-10-19T22:52:13.182Z,1016.04
2022-10-19T22:53:13.214Z,1016.00
2022-10-19T22:54:13.155Z,1015.98
2022-10-19T22:55:13.153Z,1016.03
2022-10-19T22:56:13.153Z,1015.99
2022-10-19T22:57:13.155Z,1015.91
2022-10-19T22:58:13.115Z,1015.88
2022-10-19T22:59:13.094Z,1015.86
2022-10-19T23:00:13.108Z,1015.87
2022-10-19T23:01:13.136Z,1015.79
2022-10-19T23:02:13.079Z,1015.82
2022-10-19T23:03:13.077Z,1015.75
2022-10-19T23:04:13.057Z,1015.76
2022-10-19T23:05:13.026Z,1015.78
2022-10-19T23:06:13.035Z,1015.76
2022-10-19T23:07:13.024Z,1015.76
2022-10-19T23:08:13.002Z,1015.74
2022-10-19T23:09:12.972Z,1015.73
2022-10-19T23:10:13.000Z,1015.72
2022-10-19T23:11:12.959Z,1015.67
2022-10-19T23:12:12.939Z,1015.69
2022-10-19T23:13:12.926Z,1015.62
2022-10-19T23:14:12.902Z,1015.57
2022-10-19T23:15:12.898Z,1015.57
2022-10-19T23:16:12.876Z,1015.56
2022-10-19T23:17:12.879Z,1015.46
2022-10-19T23:18:12.863Z,1015.53
2022-10-19T23:19:12.838Z,1015.44
2022-10-19T23:20:12.829Z,1015.38
2022-10-19T23:21:12.841Z,1015.39
2022-10-19T23:22:12.828Z,1015.38
2022-10-19T23:23:12.786Z,1015.36
2022-10-19T23:24:12.777Z,1015.38
2022-10-19T23:25:12.768Z,1015.37
2022-10-19T23:26:12.767Z,1015.32
2022-10-19T23:27:12.758Z,1015.37
2022-10-19T23:28:12.731Z,1015.35
2022-10-19T23:29:12.714Z,1015.32
2022-10-19T23:30:12.710Z,1015.33
2022-10-19T23:31:12.701Z,1015.35
2022-10-19T23:32:12.700Z,1015.35
2022-10-19T23:33:12.671Z,1015.30
2022-10-19T23:34:12.650Z,1015.34
2022-10-19T23:35:12.643Z,1015.33
2022-10-19T23:36:12.626Z,1015.32
2022-10-19T23:37:12.645Z,1015.28
2022-10-19T23:38:12.601Z,1015.30
2022-10-19T23:39:12.589Z,1015.31
2022-10-19T23:40:12.591Z,1015.27
2022-10-19T23:41:12.569Z,1015.30
2022-10-19T23:42:12.572Z,1015.33
2022-10-19T23:43:12.537Z,1015.38
2022-10-19T23:44:12.552Z,1015.35
2022-10-19T23:45:12.512Z,1015.32
2022-10-19T23:46:12.503Z,1015.33
2022-10-19T23:47:12.506Z,1015.34
2022-10-19T23:48:12.484Z,1015.35
2022-10-19T23:49:12.460Z,1015.38
2022-10-19T23:50:12.459Z,1015.40
2022-10-19T23:51:12.454Z,1015.37
2022-10-19T23:52:12.439Z,1015.33
2022-10-19T23:53:12.435Z,1015.36
2022-10-19T23:54:12.408Z,1015.30
2022-10-19T23:55:12.385Z,1015.27
2022-10-19T23:56:12.385Z,1015.31
2022-10-19T23:57:12.390Z,1015.28
2022-10-19T23:58:12.352Z,1015.27
2022-10-19T23:59:12.361Z,1015.26
